Time;durP1;ratioP1;P1;durP2;ratioP2;P2;SDS_P1;SDS_P2;PMS_P1;PMS_P2;Temp;Humidity;BMP_temperature;BMP_pressure;BME280_temperature;BME280_humidity;BME280_pressure;Samples;Min_cycle;Max_cycle;Signal;HPM_P1;HPM_P2
2022/06/12 00:00:27;;;;;;;6.10;1.88;;;13.30;99.90;;;;;;5033582;28;20179;-75
2022/06/12 00:02:53;;;;;;;8.52;1.75;;;13.30;99.90;;;;;;5038690;28;20051;-76
2022/06/12 00:05:21;;;;;;;7.70;2.00;;;13.30;99.90;;;;;;5035475;28;20049;-75
2022/06/12 00:07:47;;;;;;;6.70;1.88;;;13.30;99.90;;;;;;5012215;28;20052;-75
2022/06/12 00:10:13;;;;;;;3.17;1.30;;;13.20;99.90;;;;;;5034695;28;20049;-74
2022/06/12 00:12:41;;;;;;;5.60;1.60;;;13.20;99.90;;;;;;5034218;28;20048;-75
2022/06/12 00:15:08;;;;;;;5.55;1.65;;;13.20;99.90;;;;;;5017786;28;20068;-75
2022/06/12 00:17:34;;;;;;;6.18;1.35;;;13.20;99.90;;;;;;5031962;28;20132;-75
2022/06/12 00:19:59;;;;;;;4.55;1.40;;;13.20;99.90;;;;;;5032308;28;20448;-75
2022/06/12 00:22:25;;;;;;;3.75;1.30;;;13.20;99.90;;;;;;5034468;28;20038;-75
2022/06/12 00:24:51;;;;;;;6.30;1.50;;;13.20;99.90;;;;;;5034036;28;20497;-75
2022/06/12 00:27:17;;;;;;;5.40;2.22;;;13.20;99.90;;;;;;5006349;28;20041;-75
2022/06/12 00:29:44;;;;;;;7.95;1.77;;;13.10;99.90;;;;;;4997922;28;20537;-75
2022/06/12 00:32:15;;;;;;;5.88;1.65;;;13.00;99.90;;;;;;5030768;28;20132;-74
2022/06/12 00:34:44;;;;;;;5.05;1.65;;;12.90;99.90;;;;;;5014699;28;20034;-74
2022/06/12 00:37:11;;;;;;;5.85;1.48;;;12.90;99.90;;;;;;5032615;28;20438;-75
2022/06/12 00:39:39;;;;;;;6.47;1.30;;;12.90;99.90;;;;;;5050290;28;20058;-75
2022/06/12 00:42:07;;;;;;;2.75;1.33;;;12.90;99.90;;;;;;5033176;28;20080;-75
2022/06/12 00:44:38;;;;;;;5.30;1.58;;;12.90;99.90;;;;;;5033596;28;20049;-75
2022/06/12 00:47:07;;;;;;;4.67;1.60;;;12.80;99.90;;;;;;5033636;28;20398;-74
2022/06/12 00:49:47;;;;;;;3.97;1.40;;;12.80;99.90;;;;;;5033705;28;20633;-74
2022/06/12 00:52:27;;;;;;;5.60;1.88;;;12.80;99.90;;;;;;5032759;28;20124;-74
2022/06/12 00:54:59;;;;;;;5.35;1.40;;;12.80;99.90;;;;;;5033161;28;20362;-74
2022/06/12 00:57:26;;;;;;;;;;;12.70;99.90;;;;;;5033889;28;20041;-74
2022/06/12 01:00:11;;;;;;;7.35;1.85;;;12.50;99.90;;;;;;5048504;28;19939;-75
2022/06/12 01:02:37;;;;;;;7.18;1.73;;;12.50;99.90;;;;;;5033759;28;20110;-74
2022/06/12 01:07:56;;;;;;;6.63;1.83;;;12.60;99.90;;;;;;5033235;28;20501;-74
2022/06/12 01:10:28;;;;;;;6.60;2.17;;;12.70;99.90;;;;;;5033073;28;20037;-75
2022/06/12 01:13:05;;;;;;;6.57;1.90;;;12.70;99.90;;;;;;5032600;28;20136;-75
2022/06/12 01:15:43;;;;;;;5.80;2.13;;;12.70;99.90;;;;;;5029114;28;20112;-74
2022/06/12 01:18:12;;;;;;;7.10;1.95;;;12.70;99.90;;;;;;5029070;28;20080;-74
2022/06/12 01:20:46;;;;;;;7.60;1.92;;;12.70;99.90;;;;;;5031740;28;20073;-74
2022/06/12 01:23:30;;;;;;;7.68;2.00;;;12.70;99.90;;;;;;5016537;28;20095;-75
2022/06/12 01:26:17;;;;;;;7.10;2.75;;;12.70;99.90;;;;;;5036258;28;20038;-75
2022/06/12 01:29:12;;;;;;;6.50;1.90;;;12.60;99.90;;;;;;5016677;28;20055;-74
2022/06/12 01:32:03;;;;;;;5.63;1.60;;;12.60;99.90;;;;;;5032318;28;20045;-75
2022/06/12 01:34:45;;;;;;;7.93;2.45;;;12.50;99.90;;;;;;5033115;28;20047;-75
2022/06/12 01:37:19;;;;;;;6.07;2.20;;;12.50;99.90;;;;;;5032170;28;20033;-75
2022/06/12 01:40:08;;;;;;;8.13;2.60;;;12.50;99.90;;;;;;5032438;28;20375;-76
2022/06/12 01:42:48;;;;;;;7.25;2.63;;;12.40;99.90;;;;;;5031757;28;20156;-77
2022/06/12 01:45:36;;;;;;;8.07;2.42;;;12.30;99.90;;;;;;5032032;28;20041;-77
2022/06/12 01:48:16;;;;;;;7.03;2.13;;;12.30;99.90;;;;;;5032732;28;20064;-76
2022/06/12 01:50:58;;;;;;;7.38;2.30;;;12.30;99.90;;;;;;5031875;28;20064;-76
2022/06/12 01:53:29;;;;;;;;;;;12.30;99.90;;;;;;5030811;28;20063;-77
2022/06/12 01:56:01;;;;;;;7.00;2.35;;;12.30;99.90;;;;;;5031172;28;19917;-76
2022/06/12 01:58:33;;;;;;;6.45;2.50;;;12.30;99.90;;;;;;5016056;28;20048;-77
2022/06/12 02:01:06;;;;;;;;;;;12.40;99.90;;;;;;5032172;28;20061;-76
2022/06/12 02:03:43;;;;;;;6.93;2.38;;;12.40;99.90;;;;;;5046517;28;19944;-77
2022/06/12 02:06:32;;;;;;;9.50;2.50;;;12.40;99.90;;;;;;5015097;28;20467;-77
2022/06/12 02:09:10;;;;;;;6.55;2.30;;;12.40;99.90;;;;;;5031827;28;20383;-77
2022/06/12 02:14:44;;;;;;;10.18;2.67;;;12.40;99.90;;;;;;5029180;28;20410;-75
2022/06/12 02:17:15;;;;;;;6.15;2.25;;;12.40;99.90;;;;;;5027738;28;20095;-75
2022/06/12 02:19:43;;;;;;;8.18;2.38;;;12.40;99.90;;;;;;5015600;28;20080;-75
2022/06/12 02:22:17;;;;;;;6.22;2.35;;;12.40;99.90;;;;;;5031368;28;20506;-75
2022/06/12 02:25:07;;;;;;;7.38;2.63;;;12.30;99.90;;;;;;5030302;28;20518;-76
2022/06/12 02:27:53;;;;;;;8.80;2.35;;;12.30;99.90;;;;;;5014592;28;20050;-76
2022/06/12 02:30:24;;;;;;;7.28;2.33;;;12.30;99.90;;;;;;5009953;28;20481;-75
2022/06/12 02:32:57;;;;;;;9.45;2.58;;;12.30;99.90;;;;;;5031740;28;20034;-75
2022/06/12 02:35:52;;;;;;;10.90;2.72;;;12.40;99.90;;;;;;5045247;28;20549;-76
2022/06/12 02:38:25;;;;;;;5.88;2.80;;;12.30;99.90;;;;;;5029335;28;20033;-75
2022/06/12 02:40:57;;;;;;;8.85;2.90;;;12.40;99.90;;;;;;5013766;28;20067;-76
2022/06/12 02:43:28;;;;;;;6.60;2.50;;;12.30;99.90;;;;;;5044674;28;20120;-76
2022/06/12 02:46:02;;;;;;;9.73;2.90;;;12.20;99.90;;;;;;5027718;28;20034;-76
2022/06/12 02:48:30;;;;;;;8.10;2.58;;;12.20;99.90;;;;;;5028929;28;20045;-76
2022/06/12 02:51:20;;;;;;;8.25;2.90;;;12.20;99.90;;;;;;5028302;28;20057;-75
2022/06/12 02:53:49;;;;;;;10.48;3.38;;;12.20;99.90;;;;;;5025328;28;20401;-75
2022/06/12 02:56:30;;;;;;;6.05;2.30;;;12.20;99.90;;;;;;5040301;28;20049;-76
2022/06/12 02:59:39;;;;;;;8.02;2.80;;;12.30;99.90;;;;;;5019608;28;20450;-75
2022/06/12 03:02:29;;;;;;;7.03;2.50;;;12.30;99.90;;;;;;5011514;28;20038;-76
2022/06/12 03:05:29;;;;;;;10.07;2.63;;;12.30;99.90;;;;;;5014849;28;20401;-75
2022/06/12 03:08:06;;;;;;;7.57;2.20;;;12.30;99.90;;;;;;5010219;28;20060;-75
2022/06/12 03:10:37;;;;;;;7.22;2.55;;;12.30;99.90;;;;;;5030239;28;20046;-75
2022/06/12 03:13:07;;;;;;;6.13;2.35;;;12.30;99.90;;;;;;5027905;28;20112;-75
2022/06/12 03:15:35;;;;;;;6.75;2.38;;;12.30;99.90;;;;;;5035522;28;20084;-75
2022/06/12 03:18:03;;;;;;;6.72;2.50;;;12.30;99.90;;;;;;5029257;28;20037;-75
2022/06/12 03:20:56;;;;;;;6.53;2.30;;;12.30;99.90;;;;;;5047462;28;20036;-75
2022/06/12 03:23:48;;;;;;;7.22;2.55;;;12.40;99.90;;;;;;5002526;28;20124;-75
2022/06/12 03:26:30;;;;;;;9.85;2.58;;;12.40;99.90;;;;;;5009801;28;20111;-75
2022/06/12 03:29:17;;;;;;;8.27;3.22;;;12.40;99.90;;;;;;5028854;28;20494;-75
2022/06/12 03:32:29;;;;;;;9.52;2.80;;;12.40;99.90;;;;;;5012720;28;20050;-76
2022/06/12 03:35:09;;;;;;;8.43;2.25;;;12.30;99.90;;;;;;5000134;28;20115;-76
2022/06/12 03:37:52;;;;;;;7.75;2.15;;;12.30;99.90;;;;;;5023267;28;20049;-75
2022/06/12 03:40:25;;;;;;;8.38;2.42;;;12.30;99.90;;;;;;5028743;28;20080;-76
2022/06/12 03:43:20;;;;;;;7.30;2.25;;;12.40;99.90;;;;;;5033424;28;20501;-75
2022/06/12 03:45:46;;;;;;;7.32;2.13;;;12.40;99.90;;;;;;4987402;28;20054;-75
2022/06/12 03:48:11;;;;;;;7.75;2.17;;;12.40;99.90;;;;;;5030267;28;20048;-76
2022/06/12 03:50:45;;;;;;;8.93;2.50;;;12.30;99.90;;;;;;5018265;28;20064;-75
2022/06/12 03:53:20;;;;;;;7.65;2.65;;;12.40;99.90;;;;;;5033566;28;20056;-75
2022/06/12 03:59:21;;;;;;;9.57;2.42;;;12.40;99.90;;;;;;5005951;28;20497;-75
2022/06/12 04:01:48;;;;;;;6.13;2.00;;;12.40;99.90;;;;;;5018118;28;20562;-75
2022/06/12 04:04:16;;;;;;;7.03;1.92;;;12.40;99.90;;;;;;5017782;28;20084;-76
2022/06/12 04:06:44;;;;;;;7.40;2.40;;;12.40;99.90;;;;;;5017914;28;20044;-75
2022/06/12 04:09:19;;;;;;;8.93;2.55;;;12.40;99.90;;;;;;5033586;28;20512;-75
2022/06/12 04:11:57;;;;;;;8.65;2.33;;;12.50;99.90;;;;;;5033722;28;20128;-76
2022/06/12 04:14:30;;;;;;;11.32;3.08;;;12.50;99.90;;;;;;5032712;28;20048;-75
2022/06/12 04:16:59;;;;;;;9.43;2.55;;;12.60;99.90;;;;;;5050127;28;20044;-75
2022/06/12 04:19:28;;;;;;;8.95;2.20;;;12.60;99.90;;;;;;5016166;28;20124;-75
2022/06/12 04:22:06;;;;;;;8.98;2.50;;;12.70;99.90;;;;;;5033842;28;20088;-75
2022/06/12 04:24:39;;;;;;;9.10;2.58;;;12.70;99.90;;;;;;5032730;28;20064;-75
2022/06/12 04:27:19;;;;;;;6.90;2.30;;;12.80;99.90;;;;;;5032892;28;20120;-75
2022/06/12 04:30:00;;;;;;;9.63;2.40;;;12.80;99.90;;;;;;5031637;28;20053;-75
2022/06/12 04:32:28;;;;;;;11.67;2.50;;;12.70;99.90;;;;;;5016638;28;20512;-75
2022/06/12 04:34:53;;;;;;;9.43;3.20;;;12.80;99.90;;;;;;5031988;28;20287;-76
2022/06/12 04:37:26;;;;;;;9.57;2.33;;;12.80;99.90;;;;;;5016523;28;20124;-76
2022/06/12 04:39:53;;;;;;;9.07;2.67;;;13.00;99.90;;;;;;5017051;28;20061;-75
2022/06/12 04:42:22;;;;;;;8.48;2.35;;;13.00;99.90;;;;;;5014891;28;20049;-75
2022/06/12 04:44:49;;;;;;;11.00;2.70;;;13.00;99.90;;;;;;5045314;28;20416;-75
2022/06/12 04:47:19;;;;;;;11.05;2.70;;;12.90;99.90;;;;;;5033040;28;20111;-75
2022/06/12 04:49:46;;;;;;;7.82;2.97;;;13.00;99.90;;;;;;5032501;28;20137;-76
2022/06/12 04:52:13;;;;;;;9.35;2.35;;;13.00;99.90;;;;;;5031581;28;20033;-76
2022/06/12 04:54:40;;;;;;;9.20;2.38;;;13.10;99.90;;;;;;5014950;28;20033;-75
2022/06/12 04:57:08;;;;;;;11.35;2.75;;;13.20;99.90;;;;;;5038596;28;20038;-75
2022/06/12 04:59:34;;;;;;;12.63;2.67;;;13.20;99.90;;;;;;5040342;28;20441;-75
2022/06/12 05:02:01;;;;;;;9.48;3.00;;;13.20;99.90;;;;;;5032774;28;20052;-75
2022/06/12 05:04:28;;;;;;;8.85;2.30;;;13.20;99.90;;;;;;5031145;28;20045;-75
2022/06/12 05:06:53;;;;;;;8.13;2.63;;;13.20;99.90;;;;;;5032002;28;20544;-76
2022/06/12 05:09:23;;;;;;;11.63;3.65;;;13.30;99.90;;;;;;5032504;28;20073;-75
2022/06/12 05:11:49;;;;;;;10.30;2.90;;;13.30;99.90;;;;;;5032778;28;20045;-75
2022/06/12 05:14:15;;;;;;;9.70;2.30;;;13.40;99.90;;;;;;5014775;28;20112;-75
2022/06/12 05:16:51;;;;;;;8.15;2.63;;;13.50;99.90;;;;;;5010307;28;20542;-75
2022/06/12 05:19:21;;;;;;;9.75;3.05;;;13.60;99.90;;;;;;5042294;28;20087;-75
2022/06/12 05:21:47;;;;;;;11.95;3.60;;;13.70;99.90;;;;;;5032659;28;20462;-75
2022/06/12 05:24:13;;;;;;;10.45;3.22;;;13.80;99.90;;;;;;5030100;28;20124;-75
2022/06/12 05:26:40;;;;;;;10.85;3.17;;;13.80;99.90;;;;;;5031229;28;20045;-75
2022/06/12 05:29:10;;;;;;;11.75;2.92;;;13.90;99.90;;;;;;5031064;28;20037;-75
2022/06/12 05:31:36;;;;;;;11.57;2.72;;;14.00;99.90;;;;;;5014868;28;20045;-75
2022/06/12 05:34:02;;;;;;;9.88;3.15;;;14.10;99.90;;;;;;5030356;28;20048;-75
2022/06/12 05:36:27;;;;;;;10.90;2.70;;;14.10;99.90;;;;;;5031887;28;20033;-75
2022/06/12 05:38:53;;;;;;;10.40;2.70;;;14.20;99.90;;;;;;5031204;28;20080;-75
2022/06/12 05:41:19;;;;;;;11.98;3.20;;;14.30;99.90;;;;;;5014820;28;20053;-75
2022/06/12 05:43:45;;;;;;;9.30;2.70;;;14.30;99.90;;;;;;5015638;28;20045;-75
2022/06/12 05:46:14;;;;;;;11.85;3.25;;;14.40;99.90;;;;;;5030803;28;20033;-75
2022/06/12 05:48:40;;;;;;;11.63;2.90;;;14.50;99.90;;;;;;5031909;28;20045;-75
2022/06/12 05:51:07;;;;;;;9.60;2.40;;;14.60;99.90;;;;;;5042613;28;20045;-75
2022/06/12 05:53:36;;;;;;;10.13;2.67;;;14.70;99.90;;;;;;5029300;28;20068;-75
2022/06/12 05:56:05;;;;;;;10.00;2.58;;;14.70;99.90;;;;;;5047743;28;20080;-75
2022/06/12 05:58:31;;;;;;;12.02;3.03;;;14.80;99.90;;;;;;5010004;28;20516;-75
2022/06/12 06:00:57;;;;;;;10.90;2.58;;;15.00;99.90;;;;;;5010086;28;20030;-75
2022/06/12 06:03:22;;;;;;;10.48;2.58;;;15.20;99.90;;;;;;5025128;28;20120;-75
2022/06/12 06:05:49;;;;;;;12.50;3.10;;;15.30;99.90;;;;;;5030120;28;20117;-75
2022/06/12 06:08:16;;;;;;;13.02;3.40;;;15.40;99.90;;;;;;5029972;28;20041;-75
2022/06/12 06:10:43;;;;;;;9.35;2.92;;;15.50;99.90;;;;;;5011825;28;20033;-75
2022/06/12 06:13:09;;;;;;;12.48;3.08;;;15.50;99.90;;;;;;5017128;28;20033;-75
2022/06/12 06:15:35;;;;;;;16.90;3.53;;;15.70;99.90;;;;;;5028707;28;20041;-75
2022/06/12 06:18:00;;;;;;;14.18;3.70;;;15.70;99.90;;;;;;5039153;28;20077;-75
2022/06/12 06:20:29;;;;;;;12.68;4.28;;;15.80;99.90;;;;;;5014218;28;20033;-75
2022/06/12 06:22:56;;;;;;;15.60;5.38;;;15.90;99.90;;;;;;5029079;28;20159;-75
2022/06/12 06:25:23;;;;;;;14.57;3.42;;;16.10;99.90;;;;;;5013894;28;20052;-75
2022/06/12 06:27:51;;;;;;;16.95;3.63;;;16.20;99.90;;;;;;5025835;28;20037;-75
2022/06/12 06:30:16;;;;;;;16.55;3.67;;;16.20;99.90;;;;;;5024729;28;20052;-75
2022/06/12 06:32:42;;;;;;;12.73;3.50;;;16.30;99.90;;;;;;5015059;28;20041;-75
2022/06/12 06:35:09;;;;;;;14.20;3.38;;;16.40;99.90;;;;;;5035110;28;20127;-75
2022/06/12 06:37:35;;;;;;;14.82;3.92;;;16.50;99.90;;;;;;5015210;28;20048;-75
2022/06/12 06:40:02;;;;;;;12.15;3.70;;;16.70;99.90;;;;;;5030677;28;20045;-75
2022/06/12 06:42:28;;;;;;;14.63;4.10;;;16.70;99.90;;;;;;5011421;28;20065;-75
2022/06/12 06:47:38;;;;;;;15.65;4.03;;;16.80;99.90;;;;;;5030703;28;20128;-75
2022/06/12 06:50:05;;;;;;;15.02;4.15;;;16.90;99.90;;;;;;5019722;28;20073;-75
2022/06/12 06:52:31;;;;;;;15.45;3.83;;;17.00;99.90;;;;;;5035046;28;20493;-75
2022/06/12 06:54:57;;;;;;;15.45;4.07;;;17.00;99.90;;;;;;5023764;28;20116;-75
2022/06/12 06:57:22;;;;;;;15.13;3.83;;;17.10;99.90;;;;;;5047706;28;20037;-75
2022/06/12 06:59:48;;;;;;;15.82;3.78;;;17.20;99.90;;;;;;5031534;28;20091;-75
2022/06/12 07:02:13;;;;;;;16.00;4.57;;;17.30;99.90;;;;;;5031013;28;20053;-75
2022/06/12 07:04:40;;;;;;;17.38;4.22;;;17.40;99.90;;;;;;5012890;28;20037;-75
2022/06/12 07:07:08;;;;;;;14.80;3.65;;;17.40;99.90;;;;;;5029199;28;20041;-76
2022/06/12 07:09:35;;;;;;;14.15;4.15;;;17.50;99.90;;;;;;5030469;28;20045;-75
2022/06/12 07:12:01;;;;;;;19.00;4.20;;;17.50;99.90;;;;;;5005517;28;20048;-76
2022/06/12 07:14:27;;;;;;;15.35;3.60;;;17.60;99.90;;;;;;5028731;28;20454;-76
2022/06/12 07:16:53;;;;;;;15.15;3.88;;;17.70;99.90;;;;;;5030930;28;20100;-75
2022/06/12 07:19:19;;;;;;;15.38;3.95;;;17.70;99.90;;;;;;5033479;28;20483;-75
2022/06/12 07:21:44;;;;;;;13.52;3.20;;;17.80;99.90;;;;;;5034407;28;20048;-75
2022/06/12 07:24:11;;;;;;;13.75;3.63;;;17.90;99.90;;;;;;5017322;28;20044;-75
2022/06/12 07:26:41;;;;;;;15.82;3.70;;;17.80;99.90;;;;;;5017688;28;20430;-75
2022/06/12 07:29:07;;;;;;;14.73;3.55;;;17.90;99.90;;;;;;5033230;28;20045;-76
2022/06/12 07:31:33;;;;;;;15.57;3.83;;;18.00;99.90;;;;;;5033808;28;20041;-75
2022/06/12 07:33:59;;;;;;;15.63;3.90;;;18.00;99.90;;;;;;5033662;28;20040;-75
2022/06/12 07:36:25;;;;;;;14.88;3.97;;;18.10;99.90;;;;;;5017094;28;20037;-77
2022/06/12 07:38:52;;;;;;;16.90;4.10;;;18.20;99.90;;;;;;5034157;28;20045;-79
2022/06/12 07:41:19;;;;;;;12.95;3.50;;;18.30;99.90;;;;;;5033752;28;20148;-79
2022/06/12 07:43:46;;;;;;;14.35;3.47;;;18.30;99.90;;;;;;5032549;28;20052;-78
2022/06/12 07:46:14;;;;;;;15.00;3.28;;;18.40;99.90;;;;;;5009273;28;20091;-77
2022/06/12 07:48:41;;;;;;;13.55;3.80;;;18.40;99.90;;;;;;5017412;28;20166;-78
2022/06/12 07:51:10;;;;;;;16.10;3.38;;;18.50;99.90;;;;;;5017056;28;20131;-78
2022/06/12 07:53:37;;;;;;;14.98;3.50;;;18.50;99.90;;;;;;5032727;28;20044;-77
2022/06/12 07:56:04;;;;;;;14.73;3.40;;;18.50;99.90;;;;;;5049010;28;20033;-78
2022/06/12 07:58:30;;;;;;;14.73;4.00;;;18.60;99.90;;;;;;5033595;28;20041;-77
2022/06/12 08:00:59;;;;;;;12.95;3.28;;;18.50;99.90;;;;;;5034003;28;20405;-77
2022/06/12 08:03:26;;;;;;;11.80;3.45;;;18.70;99.90;;;;;;5016660;28;20033;-78
2022/06/12 08:05:52;;;;;;;13.88;3.38;;;18.80;99.90;;;;;;5015666;28;20065;-77
2022/06/12 08:08:18;;;;;;;14.15;3.10;;;18.80;99.90;;;;;;5033551;28;20064;-78
2022/06/12 08:10:44;;;;;;;13.70;3.10;;;18.90;99.90;;;;;;5016454;28;20116;-78
2022/06/12 08:13:11;;;;;;;13.32;3.30;;;19.00;99.90;;;;;;5031806;28;20545;-79
2022/06/12 08:15:39;;;;;;;16.10;3.60;;;19.00;99.90;;;;;;5015529;28;20490;-78
2022/06/12 08:18:05;;;;;;;15.27;3.13;;;18.90;99.90;;;;;;5016445;28;20490;-77
2022/06/12 08:20:32;;;;;;;13.30;3.33;;;18.90;99.90;;;;;;5015718;28;20095;-78
2022/06/12 08:23:26;;;;;;;15.57;3.50;;;19.10;99.90;;;;;;5032728;28;20045;-78
2022/06/12 08:26:06;;;;;;;12.02;3.30;;;19.30;99.90;;;;;;5032577;28;20041;-78
2022/06/12 08:28:36;;;;;;;14.45;3.10;;;19.30;99.90;;;;;;5016551;28;20128;-78
2022/06/12 08:31:05;;;;;;;10.63;2.88;;;19.40;99.90;;;;;;5032147;28;20045;-78
2022/06/12 08:33:31;;;;;;;14.05;2.97;;;19.40;99.90;;;;;;5015438;28;20041;-78
2022/06/12 08:35:57;;;;;;;12.60;3.20;;;19.30;99.90;;;;;;5032534;28;20124;-78
2022/06/12 08:38:23;;;;;;;13.55;3.17;;;19.40;99.90;;;;;;5032991;28;20483;-78
2022/06/12 08:40:49;;;;;;;14.75;3.08;;;19.30;99.90;;;;;;5032600;28;20057;-78
2022/06/12 08:43:38;;;;;;;11.38;3.30;;;19.40;99.90;;;;;;5005570;28;20041;-78
2022/06/12 08:46:43;;;;;;;13.20;3.30;;;19.50;99.90;;;;;;5032316;28;20401;-78
2022/06/12 08:49:21;;;;;;;13.65;3.03;;;19.60;99.90;;;;;;5014890;28;20132;-79
2022/06/12 08:52:14;;;;;;;12.10;3.28;;;19.80;99.90;;;;;;5014120;28;20053;-78
2022/06/12 08:55:22;;;;;;;15.70;3.30;;;19.90;99.90;;;;;;5031523;28;20033;-78
2022/06/12 08:58:10;;;;;;;13.73;3.75;;;20.10;99.90;;;;;;4966874;28;20120;-78
2022/06/12 09:00:37;;;;;;;13.73;3.65;;;20.20;99.90;;;;;;4995456;28;20037;-78
2022/06/12 09:03:05;;;;;;;13.93;3.72;;;20.20;99.90;;;;;;5016989;28;20068;-78
2022/06/12 09:05:54;;;;;;;15.75;4.03;;;20.30;99.90;;;;;;5031764;28;20029;-78
2022/06/12 09:08:48;;;;;;;13.25;3.85;;;20.20;99.90;;;;;;5022122;28;20097;-78
2022/06/12 09:11:23;;;;;;;13.75;3.58;;;20.40;99.90;;;;;;5014112;28;20057;-78
2022/06/12 09:14:04;;;;;;;14.05;3.85;;;20.40;99.90;;;;;;5028354;28;20762;-78
2022/06/12 09:16:47;;;;;;;17.00;3.95;;;20.50;99.90;;;;;;5030924;28;20485;-78
2022/06/12 09:19:18;;;;;;;12.52;2.92;;;20.50;99.90;;;;;;5032442;28;20052;-78
2022/06/12 09:22:04;;;;;;;12.93;3.28;;;20.60;99.90;;;;;;5015467;28;20053;-78
2022/06/12 09:24:48;;;;;;;14.75;3.30;;;20.80;99.90;;;;;;5030929;28;20045;-79
2022/06/12 09:27:23;;;;;;;11.23;3.35;;;20.70;99.90;;;;;;5031512;28;20516;-78
2022/06/12 09:30:03;;;;;;;13.20;3.17;;;20.50;99.90;;;;;;5031732;28;20092;-78
2022/06/12 09:32:44;;;;;;;11.25;2.95;;;20.30;99.90;;;;;;5031399;28;20037;-78
2022/06/12 09:35:38;;;;;;;13.52;2.80;;;20.30;99.90;;;;;;5018580;28;20037;-78
2022/06/12 09:38:25;;;;;;;10.50;2.42;;;20.00;99.90;;;;;;5030511;28;20088;-78
2022/06/12 09:41:12;;;;;;;11.35;3.13;;;20.00;99.90;;;;;;5032925;28;20045;-78
2022/06/12 09:43:45;;;;;;;11.20;2.75;;;20.20;99.90;;;;;;5028768;28;20053;-78
2022/06/12 09:46:31;;;;;;;16.27;3.50;;;20.40;99.90;;;;;;5040348;28;20116;-78
2022/06/12 09:49:01;;;;;;;12.43;2.72;;;20.40;99.90;;;;;;5031727;28;20051;-78
2022/06/12 09:51:50;;;;;;;10.68;2.47;;;20.50;99.90;;;;;;5030457;28;20057;-79
2022/06/12 09:54:30;;;;;;;10.15;2.65;;;20.20;99.90;;;;;;5033108;28;20042;-78
2022/06/12 09:57:05;;;;;;;10.32;2.72;;;20.10;99.90;;;;;;5030758;28;20041;-78
2022/06/12 09:59:42;;;;;;;9.68;2.50;;;20.20;99.90;;;;;;5031365;28;20060;-78
2022/06/12 10:02:54;;;;;;;13.70;3.00;;;20.30;99.90;;;;;;5029797;28;20049;-78
2022/06/12 10:05:20;;;;;;;;;;;19.90;99.90;;;;;;4975886;28;20522;-78
2022/06/12 10:07:52;;;;;;;8.77;2.47;;;19.60;99.90;;;;;;5043838;28;19971;-78
2022/06/12 10:10:41;;;;;;;9.13;2.50;;;19.60;99.90;;;;;;5042950;28;20465;-78
2022/06/12 10:13:11;;;;;;;10.80;2.28;;;19.50;99.90;;;;;;5002206;28;20054;-78
2022/06/12 10:15:53;;;;;;;8.68;2.05;;;19.40;99.90;;;;;;5028960;28;20030;-77
2022/06/12 10:18:32;;;;;;;10.63;2.03;;;19.40;99.90;;;;;;5031008;28;20045;-77
2022/06/12 10:21:08;;;;;;;8.43;2.20;;;19.50;99.90;;;;;;5030967;28;20048;-77
2022/06/12 10:23:34;;;;;;;10.20;2.28;;;19.80;99.90;;;;;;5030731;28;20124;-78
2022/06/12 10:26:04;;;;;;;10.15;2.70;;;20.00;99.90;;;;;;5013570;28;20164;-77
2022/06/12 10:28:30;;;;;;;10.27;2.10;;;20.30;99.90;;;;;;5031554;28;20076;-78
2022/06/12 10:31:10;;;;;;;8.98;2.30;;;20.50;99.90;;;;;;5006869;28;20442;-78
2022/06/12 10:33:42;;;;;;;8.52;1.90;;;20.60;99.90;;;;;;5019826;28;20038;-77
2022/06/12 10:36:36;;;;;;;5.80;1.40;;;20.80;99.90;;;;;;5030137;28;20041;-77
2022/06/12 10:39:07;;;;;;;5.75;1.50;;;20.90;99.90;;;;;;5014178;28;20046;-77
2022/06/12 10:41:40;;;;;;;8.45;1.58;;;21.00;98.00;;;;;;5029598;28;20081;-76
2022/06/12 10:44:26;;;;;;;7.25;1.98;;;20.90;98.80;;;;;;5030104;28;20037;-77
2022/06/12 10:46:52;;;;;;;5.88;1.90;;;21.00;99.90;;;;;;5017009;28;20053;-77
2022/06/12 10:49:22;;;;;;;9.57;1.98;;;21.10;99.90;;;;;;5011302;28;20041;-77
2022/06/12 10:51:48;;;;;;;7.82;1.70;;;20.80;99.90;;;;;;5034351;28;20050;-78
2022/06/12 10:54:18;;;;;;;9.32;2.10;;;20.80;99.90;;;;;;5033340;28;20092;-79
2022/06/12 10:57:14;;;;;;;6.55;1.58;;;20.90;99.90;;;;;;5034813;28;20508;-78
2022/06/12 11:00:18;;;;;;;8.30;2.20;;;20.80;99.90;;;;;;5018918;28;20615;-78
2022/06/12 11:02:51;;;;;;;6.72;2.13;;;20.80;99.90;;;;;;5033649;28;20053;-79
2022/06/12 11:05:42;;;;;;;7.03;1.83;;;20.30;99.90;;;;;;5049563;28;20056;-77
2022/06/12 11:08:53;;;;;;;8.10;1.90;;;20.50;99.90;;;;;;5017636;28;20049;-78
2022/06/12 11:11:33;;;;;;;6.55;1.65;;;20.60;99.90;;;;;;5026975;28;20076;-78
2022/06/12 11:14:03;;;;;;;7.38;1.80;;;20.40;99.90;;;;;;5034383;28;20037;-78
2022/06/12 11:16:34;;;;;;;6.90;1.50;;;20.10;99.90;;;;;;5034833;28;20041;-77
2022/06/12 11:19:19;;;;;;;7.13;2.00;;;20.00;99.90;;;;;;5035504;28;20080;-78
2022/06/12 11:22:10;;;;;;;7.13;1.77;;;20.00;99.90;;;;;;5033549;28;20124;-77
2022/06/12 11:25:07;;;;;;;7.35;1.77;;;20.10;99.90;;;;;;5035261;28;20124;-77
2022/06/12 11:28:00;;;;;;;8.82;2.20;;;20.10;99.90;;;;;;5014281;28;20099;-78
2022/06/12 11:30:33;;;;;;;7.97;2.20;;;19.90;99.90;;;;;;5037955;28;20498;-78
2022/06/12 11:33:18;;;;;;;6.63;2.10;;;20.10;99.90;;;;;;5033793;28;20044;-78
2022/06/12 11:36:04;;;;;;;12.70;2.28;;;20.30;99.90;;;;;;5051069;28;20033;-78
2022/06/12 11:38:51;;;;;;;11.65;2.15;;;20.30;99.90;;;;;;5024144;28;20045;-77
2022/06/12 11:41:44;;;;;;;8.15;1.80;;;20.50;99.90;;;;;;5034845;28;20131;-77
2022/06/12 11:44:13;;;;;;;6.28;1.85;;;20.50;99.90;;;;;;5017590;28;20041;-77
2022/06/12 11:46:56;;;;;;;7.95;2.45;;;20.30;99.90;;;;;;5020280;28;20486;-77
2022/06/12 11:49:31;;;;;;;7.53;1.77;;;20.30;99.90;;;;;;5050432;28;20029;-78
2022/06/12 11:52:22;;;;;;;8.15;2.10;;;20.40;99.90;;;;;;5031458;28;20041;-77
2022/06/12 11:54:54;;;;;;;9.38;2.10;;;20.40;99.90;;;;;;5040106;28;20041;-78
2022/06/12 11:57:55;;;;;;;9.30;2.13;;;20.60;99.90;;;;;;5033780;28;20037;-78
2022/06/12 12:00:32;;;;;;;6.97;2.15;;;20.70;99.90;;;;;;5056171;28;20044;-78
2022/06/12 12:03:32;;;;;;;10.85;2.10;;;20.80;99.90;;;;;;5022403;28;20041;-78
2022/06/12 12:06:25;;;;;;;11.13;2.15;;;20.90;99.90;;;;;;5033464;28;20517;-78
2022/06/12 12:09:00;;;;;;;9.40;2.20;;;21.00;99.90;;;;;;5026839;28;20493;-79
2022/06/12 12:11:41;;;;;;;12.00;2.03;;;20.60;99.90;;;;;;5019516;28;20129;-78
2022/06/12 12:14:12;;;;;;;9.02;2.33;;;20.60;99.90;;;;;;5023234;28;20485;-78
2022/06/12 12:16:46;;;;;;;7.43;2.13;;;20.60;99.90;;;;;;5027841;28;20493;-78
2022/06/12 12:19:41;;;;;;;9.25;2.30;;;20.80;99.90;;;;;;5029736;28;20034;-78
2022/06/12 12:22:36;;;;;;;7.85;1.80;;;20.70;99.90;;;;;;5027475;28;20087;-78
2022/06/12 12:25:19;;;;;;;7.85;2.10;;;20.80;99.90;;;;;;5016225;28;20052;-80
2022/06/12 12:27:49;;;;;;;9.57;2.50;;;20.90;99.90;;;;;;5004424;28;20041;-78
2022/06/12 12:30:32;;;;;;;8.38;2.00;;;20.90;99.90;;;;;;5016717;28;20044;-77
2022/06/12 12:33:03;;;;;;;8.95;1.85;;;20.80;99.50;;;;;;5029447;28;20030;-79
2022/06/12 12:41:14;;;;;;;7.60;1.85;;;20.70;99.90;;;;;;5026954;28;20053;-79
2022/06/12 12:44:01;;;;;;;8.50;2.25;;;20.80;99.90;;;;;;5030986;28;20049;-78
2022/06/12 12:46:50;;;;;;;5.55;1.95;;;20.90;99.90;;;;;;5040472;28;20060;-78
2022/06/12 12:49:28;;;;;;;8.32;2.30;;;20.90;99.90;;;;;;5032426;28;20068;-78
2022/06/12 12:52:15;;;;;;;7.55;2.08;;;20.70;99.90;;;;;;5039736;28;20397;-78
2022/06/12 12:54:54;;;;;;;9.02;1.90;;;20.60;99.90;;;;;;5031661;28;20033;-78
2022/06/12 12:57:42;;;;;;;9.82;2.05;;;20.50;99.90;;;;;;5032538;28;20432;-78
2022/06/12 13:00:17;;;;;;;9.23;1.90;;;20.40;99.90;;;;;;5011670;28;20033;-77
2022/06/12 13:02:53;;;;;;;7.43;2.00;;;20.30;99.90;;;;;;5042517;28;20056;-79
2022/06/12 13:05:27;;;;;;;11.80;2.67;;;20.30;99.90;;;;;;5031389;28;20566;-78
2022/06/12 13:08:20;;;;;;;7.65;2.00;;;20.50;99.90;;;;;;5047129;28;20095;-78
2022/06/12 13:11:17;;;;;;;6.32;1.77;;;20.50;99.90;;;;;;5025390;28;20556;-78
2022/06/12 13:14:13;;;;;;;7.68;1.60;;;20.40;99.90;;;;;;5022218;28;20486;-78
2022/06/12 13:17:00;;;;;;;6.95;2.10;;;20.30;99.90;;;;;;5048176;28;20033;-77
2022/06/12 13:19:26;;;;;;;6.28;1.80;;;20.30;99.90;;;;;;5026487;28;20453;-78
2022/06/12 13:22:14;;;;;;;8.38;1.70;;;20.20;99.70;;;;;;5015321;28;20056;-78
2022/06/12 13:24:50;;;;;;;7.65;1.90;;;20.10;99.90;;;;;;5021287;28;20046;-78
2022/06/12 13:27:23;;;;;;;8.45;1.77;;;20.10;99.90;;;;;;5032012;28;20038;-78
2022/06/12 13:29:51;;;;;;;7.35;1.95;;;20.10;99.90;;;;;;5028514;28;20128;-77
2022/06/12 13:32:26;;;;;;;5.88;1.70;;;20.30;99.90;;;;;;5017611;28;20042;-78
2022/06/12 13:35:00;;;;;;;7.43;2.05;;;20.10;99.90;;;;;;5044603;28;20033;-77
2022/06/12 13:37:29;;;;;;;9.05;2.25;;;20.00;99.90;;;;;;5006447;28;20069;-77
2022/06/12 13:39:55;;;;;;;4.88;1.70;;;20.20;99.90;;;;;;5035277;28;20502;-77